Time;durP1;ratioP1;P1;durP2;ratioP2;P2;SDS_P1;SDS_P2;PMS_P1;PMS_P2;Temp;Humidity;BMP_temperature;BMP_pressure;BME280_temperature;BME280_humidity;BME280_pressure;Samples;Min_cycle;Max_cycle;Signal;HPM_P1;HPM_P2
2023/06/05 00:01:55;;;;;;;0.77;0.77;;;;;;;22.14;50.52;102191.03;5007741;28;20042;-56
2023/06/05 00:04:20;;;;;;;1.30;1.00;;;;;;;22.14;50.10;102196.44;5006852;28;20042;-56
2023/06/05 00:06:46;;;;;;;0.90;0.90;;;;;;;22.14;50.02;102192.84;5007070;28;20030;-57
2023/06/05 00:09:13;;;;;;;2.28;0.98;;;;;;;22.14;50.01;102192.84;5007467;28;20087;-57
2023/06/05 00:11:39;;;;;;;0.90;0.90;;;;;;;22.13;50.01;102202.84;5007928;28;20385;-56
2023/06/05 00:14:05;;;;;;;1.17;1.05;;;;;;;22.12;50.08;102201.13;5007035;28;20034;-57
2023/06/05 00:16:30;;;;;;;1.00;0.95;;;;;;;22.13;50.41;102199.28;5007586;28;20038;-55
2023/06/05 00:18:56;;;;;;;1.80;0.95;;;;;;;22.12;50.16;102198.41;5005527;28;20034;-56
2023/06/05 00:21:22;;;;;;;2.40;0.98;;;;;;;22.12;50.27;102201.13;5010875;28;20109;-56
2023/06/05 00:23:47;;;;;;;0.75;0.75;;;;;;;22.12;50.37;102201.13;5008546;28;20030;-56
2023/06/05 00:26:13;;;;;;;1.17;0.90;;;;;;;22.11;50.19;102196.72;5004865;28;20037;-57
2023/06/05 00:28:38;;;;;;;0.80;0.80;;;;;;;22.11;50.12;102193.16;5006998;28;20120;-55
2023/06/05 00:31:04;;;;;;;0.80;0.80;;;;;;;22.11;50.10;102187.72;5007620;28;20384;-56
2023/06/05 00:33:30;;;;;;;2.10;1.10;;;;;;;22.10;50.02;102197.69;5008151;28;20022;-55
2023/06/05 00:35:56;;;;;;;1.52;0.90;;;;;;;22.10;50.14;102192.28;5006832;28;20062;-55
2023/06/05 00:38:21;;;;;;;1.15;0.90;;;;;;;22.10;49.64;102202.28;5006903;28;20072;-56
2023/06/05 00:40:47;;;;;;;1.60;1.02;;;;;;;22.10;50.02;102197.69;5006882;28;20030;-56
2023/06/05 00:43:12;;;;;;;1.40;1.20;;;;;;;22.09;50.01;102195.16;5005858;28;20484;-55
2023/06/05 00:45:38;;;;;;;1.17;0.90;;;;;;;22.10;49.69;102195.00;5006573;28;20062;-56
2023/06/05 00:48:04;;;;;;;3.47;1.00;;;;;;;22.08;49.55;102185.28;5006838;28;20038;-57
2023/06/05 00:50:32;;;;;;;0.90;0.90;;;;;;;22.08;50.08;102193.44;5003989;28;20377;-56
2023/06/05 00:52:58;;;;;;;1.20;1.10;;;;;;;22.07;49.54;102189.88;5010721;28;20038;-56
2023/06/05 00:55:25;;;;;;;1.00;0.90;;;;;;;22.08;49.83;102201.56;5007229;28;20030;-55
2023/06/05 00:57:50;;;;;;;1.20;1.10;;;;;;;22.06;49.96;102193.56;5004830;28;20034;-56
2023/06/05 01:00:16;;;;;;;1.77;1.23;;;;;;;22.07;49.86;102189.88;5009010;28;20048;-56
2023/06/05 01:02:42;;;;;;;1.95;1.40;;;;;;;22.06;49.91;102191.69;5007018;28;20042;-56
2023/06/05 01:05:08;;;;;;;0.88;0.88;;;;;;;22.06;49.28;102190.84;5007500;28;20076;-56
2023/06/05 01:07:37;;;;;;;1.30;1.20;;;;;;;22.04;49.74;102190.97;5004837;28;20062;-55
2023/06/05 01:10:05;;;;;;;1.35;0.90;;;;;;;22.04;49.71;102192.84;5006872;28;20095;-56
2023/06/05 01:12:40;;;;;;;1.13;0.88;;;;;;;22.04;49.86;102188.28;5006634;28;20025;-55
2023/06/05 01:15:07;;;;;;;0.90;0.90;;;;;;;22.03;49.75;102191.16;5007632;28;20030;-55
2023/06/05 01:17:35;;;;;;;1.02;1.00;;;;;;;22.03;49.27;102183.00;5009550;28;20038;-56
2023/06/05 01:20:07;;;;;;;1.42;1.10;;;;;;;22.02;49.31;102179.41;5005993;28;20030;-56
2023/06/05 01:22:34;;;;;;;1.90;0.95;;;;;;;22.02;49.28;102174.00;5009559;28;20033;-56
2023/06/05 01:25:01;;;;;;;1.85;1.10;;;;;;;22.02;49.27;102184.00;5009725;28;20030;-56
2023/06/05 01:27:42;;;;;;;0.93;0.93;;;;;;;22.02;49.70;102179.41;5012204;28;20042;-56
2023/06/05 01:30:29;;;;;;;1.10;1.00;;;;;;;22.01;49.57;102176.88;5010397;28;20053;-56
2023/06/05 01:33:02;;;;;;;1.95;1.17;;;;;;;22.00;49.53;102181.41;5006412;28;20054;-56
2023/06/05 01:35:29;;;;;;;1.80;1.20;;;;;;;22.01;49.46;102187.72;5006751;28;20484;-56
2023/06/05 01:37:58;;;;;;;1.05;0.95;;;;;;;21.99;49.48;102189.69;5012060;28;20084;-56
2023/06/05 01:40:24;;;;;;;1.10;1.00;;;;;;;22.00;49.44;102186.00;5005285;28;20472;-56
2023/06/05 01:42:51;;;;;;;1.23;1.13;;;;;;;21.99;49.34;102184.25;5012359;28;20100;-56
2023/06/05 01:45:18;;;;;;;1.17;1.08;;;;;;;21.98;49.41;102179.84;5006554;28;20039;-56
2023/06/05 01:47:45;;;;;;;1.33;1.23;;;;;;;21.98;49.31;102166.28;5006732;28;20038;-56
2023/06/05 01:50:12;;;;;;;1.45;1.23;;;;;;;21.97;49.03;102180.84;5009159;28;20076;-56
2023/06/05 01:52:39;;;;;;;2.35;1.27;;;;;;;21.96;49.19;102169.13;5013158;28;20026;-55
2023/06/05 01:55:07;;;;;;;1.00;0.93;;;;;;;21.97;49.30;102170.00;5008635;28;20431;-56
2023/06/05 01:57:33;;;;;;;1.10;1.00;;;;;;;21.97;49.36;102167.28;5009825;28;20396;-56
2023/06/05 02:00:13;;;;;;;1.33;1.00;;;;;;;21.95;49.00;102166.56;5013362;28;20383;-56
2023/06/05 02:02:41;;;;;;;1.15;0.90;;;;;;;21.96;49.40;102162.88;5009542;28;20033;-55
2023/06/05 02:05:08;;;;;;;1.15;1.05;;;;;;;21.94;49.19;102156.72;5009265;28;20030;-55
2023/06/05 02:07:37;;;;;;;1.40;1.30;;;;;;;21.94;48.71;102154.03;5009335;28;20108;-56
2023/06/05 02:10:05;;;;;;;1.58;1.10;;;;;;;21.94;49.07;102159.44;5009479;28;20038;-56
2023/06/05 02:12:30;;;;;;;1.00;1.00;;;;;;;21.94;49.27;102156.72;5008938;28;20112;-56
2023/06/05 02:14:57;;;;;;;1.00;0.90;;;;;;;21.93;49.11;102149.56;5008877;28;20544;-56
2023/06/05 02:17:24;;;;;;;1.05;1.05;;;;;;;21.92;48.82;102151.44;5009152;28;20046;-56
2023/06/05 02:19:50;;;;;;;0.90;0.90;;;;;;;21.93;48.62;102149.56;5009617;28;20089;-56
2023/06/05 02:22:15;;;;;;;2.10;1.08;;;;;;;21.93;49.05;102152.28;5006493;28;20034;-56
2023/06/05 02:24:41;;;;;;;1.20;1.10;;;;;;;21.92;48.66;102151.44;5009686;28;20519;-56
2023/06/05 02:27:08;;;;;;;1.20;1.10;;;;;;;21.92;48.97;102156.00;5013021;28;20045;-56
2023/06/05 02:29:33;;;;;;;1.20;1.10;;;;;;;21.90;48.55;102152.59;5009685;28;20049;-56
2023/06/05 02:31:58;;;;;;;1.00;0.90;;;;;;;21.91;48.58;102154.28;5008554;28;20477;-56
2023/06/05 02:34:24;;;;;;;1.58;1.38;;;;;;;21.90;48.89;102142.59;5009236;28;20143;-56
2023/06/05 02:36:50;;;;;;;1.77;1.20;;;;;;;21.90;48.90;102148.00;5009202;28;20030;-56
2023/06/05 02:39:16;;;;;;;1.35;1.00;;;;;;;21.89;48.62;102146.28;5009680;28;20483;-56
2023/06/05 02:41:42;;;;;;;1.35;0.98;;;;;;;21.89;48.84;102150.84;5008675;28;20488;-56
2023/06/05 02:44:08;;;;;;;1.67;1.13;;;;;;;21.89;48.65;102148.16;5008601;28;20038;-56
2023/06/05 02:46:33;;;;;;;1.55;1.45;;;;;;;21.88;48.81;102147.31;5008883;28;20132;-56
2023/06/05 02:48:58;;;;;;;1.38;1.27;;;;;;;21.88;48.69;102139.16;5012040;28;20029;-56
2023/06/05 02:51:24;;;;;;;1.55;1.35;;;;;;;21.88;48.31;102139.16;5008102;28;20108;-56
2023/06/05 02:53:49;;;;;;;1.48;1.38;;;;;;;21.88;48.26;102146.44;5008357;28;20030;-56
2023/06/05 02:56:15;;;;;;;1.23;0.90;;;;;;;21.87;48.31;102140.16;5008855;28;20037;-56
2023/06/05 02:58:43;;;;;;;1.05;0.95;;;;;;;21.86;48.62;102131.16;5011197;28;20042;-56
2023/06/05 03:01:10;;;;;;;2.08;1.20;;;;;;;21.85;48.38;102134.84;5008774;28;20074;-56
2023/06/05 03:03:36;;;;;;;1.30;1.20;;;;;;;21.85;48.27;102137.56;5008750;28;20037;-55
2023/06/05 03:06:06;;;;;;;1.20;1.10;;;;;;;21.84;48.75;102135.88;5007896;28;20042;-56
2023/06/05 03:08:35;;;;;;;1.13;1.05;;;;;;;21.85;48.63;102134.00;5008754;28;20034;-55
2023/06/05 03:11:02;;;;;;;1.70;1.30;;;;;;;21.83;48.27;102142.28;5008910;28;20397;-56
2023/06/05 03:13:28;;;;;;;1.30;1.20;;;;;;;21.83;48.64;102139.56;5009023;28;20034;-55
2023/06/05 03:15:57;;;;;;;1.45;1.35;;;;;;;21.83;48.28;102138.72;5014528;28;20041;-55
2023/06/05 03:18:24;;;;;;;1.58;1.30;;;;;;;21.82;48.59;102140.59;5007301;28;20070;-56
2023/06/05 03:20:51;;;;;;;1.27;1.10;;;;;;;21.81;48.44;102136.16;5008377;28;20390;-55
2023/06/05 03:23:16;;;;;;;1.30;1.20;;;;;;;21.81;48.10;102141.56;5012220;28;20124;-56
2023/06/05 03:25:42;;;;;;;1.20;1.10;;;;;;;21.81;48.14;102138.00;5011743;28;20099;-55
2023/06/05 03:28:07;;;;;;;1.38;1.17;;;;;;;21.81;48.34;102130.72;5008180;28;20490;-55
2023/06/05 03:30:33;;;;;;;1.38;1.27;;;;;;;21.79;47.79;102127.28;5014566;28;20053;-55
2023/06/05 03:32:58;;;;;;;2.15;1.38;;;;;;;21.80;48.45;102122.72;5008775;28;20029;-56
2023/06/05 03:35:23;;;;;;;1.42;1.33;;;;;;;21.81;48.38;102124.44;5007407;28;20487;-55
2023/06/05 03:37:49;;;;;;;1.30;1.20;;;;;;;21.79;48.28;102126.44;5007595;28;20385;-56
2023/06/05 03:40:14;;;;;;;1.38;1.27;;;;;;;21.80;48.34;102125.44;5007746;28;20109;-56
2023/06/05 03:42:40;;;;;;;1.30;1.20;;;;;;;21.79;47.87;102121.88;5011954;28;20085;-55
2023/06/05 03:45:06;;;;;;;1.65;1.08;;;;;;;21.78;48.07;102117.47;5004582;28;20408;-55
2023/06/05 03:47:34;;;;;;;2.85;1.38;;;;;;;21.77;48.33;102114.88;5007607;28;20084;-55
2023/06/05 03:50:00;;;;;;;1.52;1.42;;;;;;;21.77;47.98;102126.59;5007934;28;20041;-56
2023/06/05 03:52:26;;;;;;;1.20;1.02;;;;;;;21.76;48.19;102116.75;5008184;28;20034;-56
2023/06/05 03:54:54;;;;;;;1.88;1.70;;;;;;;21.76;48.10;102124.88;5007057;28;20045;-55
2023/06/05 03:57:20;;;;;;;1.42;1.33;;;;;;;21.75;47.77;102120.44;5007402;28;20033;-55
2023/06/05 03:59:46;;;;;;;1.40;1.30;;;;;;;21.74;48.14;102121.47;5011531;28;20060;-55
2023/06/05 04:02:13;;;;;;;1.95;1.17;;;;;;;21.74;47.78;102121.47;5006983;28;20034;-55
2023/06/05 04:04:38;;;;;;;2.65;1.17;;;;;;;21.74;48.09;102120.56;5009700;28;20033;-55
2023/06/05 04:07:05;;;;;;;1.48;1.30;;;;;;;21.74;47.58;102123.28;5008061;28;20084;-56
2023/06/05 04:09:31;;;;;;;1.20;1.10;;;;;;;21.73;47.83;102119.72;5007971;28;20374;-55
2023/06/05 04:11:56;;;;;;;1.45;1.30;;;;;;;21.72;47.79;102118.00;5007966;28;20034;-55
2023/06/05 04:14:22;;;;;;;1.35;1.25;;;;;;;21.72;47.92;102123.44;5006335;28;20030;-55
2023/06/05 04:16:48;;;;;;;1.38;1.23;;;;;;;21.72;47.86;102118.00;5007291;28;20064;-55
2023/06/05 04:19:13;;;;;;;2.22;1.20;;;;;;;21.71;48.03;102116.31;5007025;28;20399;-55
2023/06/05 04:21:40;;;;;;;2.08;1.30;;;;;;;21.72;47.55;102120.72;5007469;28;20037;-55
2023/06/05 04:24:10;;;;;;;1.30;1.20;;;;;;;21.71;47.80;102121.72;5006455;28;20033;-55
2023/06/05 04:26:37;;;;;;;2.30;1.58;;;;;;;21.72;47.46;102130.72;5003801;28;20176;-56
2023/06/05 04:29:09;;;;;;;1.48;1.20;;;;;;;21.71;47.49;102120.88;5007249;28;20034;-55
2023/06/05 04:31:35;;;;;;;1.45;1.30;;;;;;;21.71;47.79;102129.00;5006658;28;20061;-55
2023/06/05 04:34:01;;;;;;;2.00;1.45;;;;;;;21.70;47.67;102130.00;5006751;28;20479;-56
2023/06/05 04:36:28;;;;;;;1.25;1.15;;;;;;;21.69;47.69;102131.84;5004314;28;20030;-56
2023/06/05 04:38:54;;;;;;;1.10;1.00;;;;;;;21.69;47.44;102139.13;5009850;28;20026;-56
2023/06/05 04:41:21;;;;;;;1.80;1.60;;;;;;;21.68;47.43;102132.84;5009329;28;20036;-56
2023/06/05 04:43:47;;;;;;;1.63;1.20;;;;;;;21.67;47.61;102137.41;5007585;28;20040;-55
2023/06/05 04:46:12;;;;;;;1.50;1.40;;;;;;;21.68;47.27;102138.25;5014014;28;20041;-56
2023/06/05 04:48:38;;;;;;;1.70;1.30;;;;;;;21.68;47.64;102138.25;5007058;28;20033;-55
2023/06/05 04:51:03;;;;;;;2.00;1.35;;;;;;;21.67;47.48;102134.69;5006819;28;20052;-55
2023/06/05 04:53:30;;;;;;;1.40;1.30;;;;;;;21.67;47.57;102139.28;5006937;28;20028;-55
2023/06/05 04:56:00;;;;;;;1.30;1.20;;;;;;;21.67;47.56;102136.56;5007526;28;20123;-55
2023/06/05 04:58:26;;;;;;;1.50;1.40;;;;;;;21.67;47.15;102141.97;5006340;28;20021;-55
2023/06/05 05:00:51;;;;;;;1.23;1.17;;;;;;;21.66;47.70;102141.09;5007953;28;20041;-56
2023/06/05 05:03:17;;;;;;;2.05;1.35;;;;;;;21.66;47.43;102145.69;5007212;28;20038;-55
2023/06/05 05:05:43;;;;;;;1.40;1.30;;;;;;;21.66;47.46;102140.25;5007298;28;20044;-56
2023/06/05 05:08:08;;;;;;;1.42;1.33;;;;;;;21.66;47.59;102145.69;5006282;28;20037;-55
2023/06/05 05:10:33;;;;;;;1.30;1.20;;;;;;;21.65;47.16;102146.69;5006419;28;20084;-56
2023/06/05 05:13:02;;;;;;;1.42;1.33;;;;;;;21.65;47.10;102149.41;5006631;28;20022;-55
2023/06/05 05:15:31;;;;;;;1.23;1.13;;;;;;;21.64;47.39;102140.38;5009331;28;20041;-56
2023/06/05 05:17:57;;;;;;;2.00;1.42;;;;;;;21.64;47.19;102140.38;5005954;28;20121;-55
2023/06/05 05:20:23;;;;;;;1.50;1.27;;;;;;;21.63;47.39;102135.97;5006342;28;20444;-55
2023/06/05 05:22:48;;;;;;;1.70;1.38;;;;;;;21.64;47.44;102143.09;5010618;28;20038;-55
2023/06/05 05:25:14;;;;;;;1.95;1.27;;;;;;;21.64;47.56;102139.53;5008997;28;20056;-56
2023/06/05 05:27:39;;;;;;;1.40;1.30;;;;;;;21.64;47.62;102137.69;5007426;28;20400;-56
2023/06/05 05:30:05;;;;;;;1.63;1.35;;;;;;;21.62;47.27;102145.09;5010672;28;20435;-55
2023/06/05 05:32:31;;;;;;;1.33;1.20;;;;;;;21.63;47.63;102135.97;5010669;28;20522;-55
2023/06/05 05:34:56;;;;;;;1.20;1.10;;;;;;;21.63;47.51;102129.72;5009492;28;20066;-55
2023/06/05 05:37:22;;;;;;;1.55;1.40;;;;;;;21.63;47.52;102130.56;5012236;28;20029;-55
2023/06/05 05:39:48;;;;;;;1.38;1.20;;;;;;;21.63;47.65;102140.56;5011526;28;20124;-55
2023/06/05 05:42:13;;;;;;;1.63;1.42;;;;;;;21.62;47.34;102136.13;5009073;28;20133;-55
2023/06/05 05:44:42;;;;;;;1.60;1.40;;;;;;;21.62;47.26;102139.66;5009792;28;20049;-56
2023/06/05 05:47:08;;;;;;;1.58;1.48;;;;;;;21.62;47.29;102144.25;5010092;28;20076;-55
2023/06/05 05:49:33;;;;;;;1.63;1.30;;;;;;;21.60;47.61;102144.38;5010234;28;20050;-56
2023/06/05 05:51:59;;;;;;;1.20;1.13;;;;;;;21.61;47.59;102142.50;5010116;28;20052;-55
2023/06/05 05:54:26;;;;;;;1.30;1.20;;;;;;;21.61;47.53;102142.50;5009063;28;20030;-55
2023/06/05 05:56:53;;;;;;;1.25;1.15;;;;;;;21.61;47.25;102147.94;5009152;28;20033;-56
2023/06/05 05:59:19;;;;;;;1.27;1.17;;;;;;;21.60;47.49;102141.66;5012583;28;20033;-55
2023/06/05 06:01:45;;;;;;;2.47;1.20;;;;;;;21.60;47.65;102146.25;5009935;28;20088;-55
2023/06/05 06:04:11;;;;;;;1.52;1.25;;;;;;;21.59;47.55;102139.09;5008885;28;20513;-55
2023/06/05 06:06:39;;;;;;;1.27;1.17;;;;;;;21.60;47.16;102154.38;5009558;28;20030;-56
2023/06/05 06:09:08;;;;;;;1.23;1.00;;;;;;;21.60;47.22;102149.78;5009767;28;20057;-56
2023/06/05 06:11:33;;;;;;;1.10;1.10;;;;;;;21.59;47.24;102161.66;5011734;28;20536;-55
2023/06/05 06:13:59;;;;;;;1.55;1.45;;;;;;;21.60;47.50;102159.78;5009571;28;20118;-55
2023/06/05 06:16:25;;;;;;;2.15;1.30;;;;;;;21.60;47.70;102159.78;5010001;28;20040;-56
2023/06/05 06:18:50;;;;;;;1.50;1.40;;;;;;;21.60;47.28;102154.38;5016806;28;20038;-55
2023/06/05 06:21:16;;;;;;;2.15;1.52;;;;;;;21.60;47.23;102160.63;5007939;28;20533;-56
2023/06/05 06:23:41;;;;;;;1.55;1.45;;;;;;;21.60;47.34;102167.91;5008379;28;20034;-55
2023/06/05 06:26:07;;;;;;;1.50;1.40;;;;;;;21.58;47.69;102165.34;5011968;28;20037;-56
2023/06/05 06:28:32;;;;;;;1.60;1.50;;;;;;;21.60;47.28;102168.78;5008897;28;20034;-56
2023/06/05 06:30:58;;;;;;;1.70;1.20;;;;;;;21.60;47.35;102157.06;5011291;28;20038;-55
2023/06/05 06:33:24;;;;;;;1.20;1.10;;;;;;;21.58;47.66;102159.91;5006261;28;20022;-56
2023/06/05 06:35:49;;;;;;;0.93;0.93;;;;;;;21.59;47.31;102160.78;5010050;28;20029;-56
2023/06/05 06:38:16;;;;;;;1.48;1.17;;;;;;;21.59;47.36;102158.06;5008185;28;20387;-55
2023/06/05 06:40:42;;;;;;;1.48;1.38;;;;;;;21.59;47.29;102153.53;5008919;28;20096;-56
2023/06/05 06:43:10;;;;;;;1.38;1.20;;;;;;;21.58;47.34;102162.63;5008872;28;20045;-56
2023/06/05 06:45:36;;;;;;;1.30;1.20;;;;;;;21.58;47.37;102161.78;5009682;28;20045;-56
2023/06/05 06:48:01;;;;;;;2.35;1.50;;;;;;;21.58;47.53;102161.78;5007161;28;20030;-55
2023/06/05 06:50:26;;;;;;;1.00;1.00;;;;;;;21.58;47.54;102165.34;5008488;28;20112;-56
2023/06/05 06:52:52;;;;;;;1.42;1.30;;;;;;;21.58;47.63;102167.22;5011024;28;20037;-57
2023/06/05 06:55:17;;;;;;;1.38;1.25;;;;;;;21.57;47.38;102163.66;5011951;28;20125;-55
2023/06/05 06:57:43;;;;;;;1.20;1.10;;;;;;;21.58;47.33;102164.50;5008187;28;20046;-56
2023/06/05 07:00:10;;;;;;;1.30;1.20;;;;;;;21.57;47.42;102163.66;5010975;28;20465;-56
2023/06/05 07:02:37;;;;;;;1.38;1.17;;;;;;;21.57;47.57;102171.78;5013547;28;20065;-56
2023/06/05 07:05:02;;;;;;;2.38;1.38;;;;;;;21.57;47.94;102177.19;5009719;28;20385;-56
2023/06/05 07:07:29;;;;;;;1.25;1.15;;;;;;;21.58;47.78;102175.34;5005377;28;20045;-56
2023/06/05 07:09:54;;;;;;;1.52;1.15;;;;;;;21.57;47.38;102174.50;5008222;28;20076;-54
2023/06/05 07:12:22;;;;;;;1.30;1.20;;;;;;;21.58;47.45;102180.75;5015463;28;20471;-54
2023/06/05 07:14:48;;;;;;;1.10;1.00;;;;;;;21.56;47.38;102178.19;5009293;28;20034;-54
2023/06/05 07:17:13;;;;;;;1.08;1.08;;;;;;;21.58;47.50;102186.19;5007886;28;20097;-54
2023/06/05 07:19:39;;;;;;;1.33;1.23;;;;;;;21.57;47.81;102190.75;5013104;28;20419;-54
2023/06/05 07:22:05;;;;;;;1.30;1.20;;;;;;;21.56;47.43;102189.03;5010129;28;20030;-54
2023/06/05 07:24:32;;;;;;;1.40;1.30;;;;;;;21.56;47.79;102180.88;5008068;28;20038;-54
2023/06/05 07:27:00;;;;;;;1.40;1.30;;;;;;;21.56;47.32;102183.59;5013495;28;20121;-54
2023/06/05 07:29:26;;;;;;;1.35;1.25;;;;;;;21.57;47.47;102181.72;5008201;28;20030;-54
2023/06/05 07:31:54;;;;;;;1.38;1.13;;;;;;;21.56;47.38;102180.03;5008438;28;20034;-54
2023/06/05 07:34:21;;;;;;;1.38;1.27;;;;;;;21.57;47.62;102184.44;5007671;28;20072;-54
2023/06/05 07:36:48;;;;;;;1.20;1.17;;;;;;;21.56;47.63;102178.19;5007654;28;20503;-54
2023/06/05 07:39:14;;;;;;;1.02;1.02;;;;;;;21.57;47.32;102189.88;5007634;28;20187;-54
2023/06/05 07:41:40;;;;;;;1.30;1.20;;;;;;;21.57;47.39;102181.72;5007720;28;20042;-54
2023/06/05 07:44:10;;;;;;;1.30;1.20;;;;;;;21.56;47.92;102178.19;5005643;28;20456;-54
2023/06/05 07:46:50;;;;;;;1.15;1.13;;;;;;;21.57;47.75;102179.03;5065141;28;20395;-56
2023/06/05 07:49:16;;;;;;;1.10;1.02;;;;;;;21.57;47.42;102181.72;5062434;28;20048;-56
2023/06/05 07:51:43;;;;;;;1.30;1.20;;;;;;;21.57;47.79;102184.44;5063410;28;20402;-56
2023/06/05 07:54:10;;;;;;;1.20;1.10;;;;;;;21.57;47.86;102184.44;5063671;28;20035;-56
2023/06/05 07:56:38;;;;;;;1.02;1.02;;;;;;;21.57;47.76;102179.03;5063933;28;20067;-57
2023/06/05 07:59:05;;;;;;;1.20;1.10;;;;;;;21.57;47.37;102177.19;5058569;28;20090;-57
2023/06/05 08:01:31;;;;;;;1.30;1.20;;;;;;;21.57;47.69;102179.91;5063169;28;20124;-56
2023/06/05 08:03:57;;;;;;;1.48;1.00;;;;;;;21.57;47.85;102179.03;5064352;28;20087;-56
2023/06/05 08:06:24;;;;;;;1.63;1.30;;;;;;;21.57;47.76;102173.59;5063837;28;20395;-57
2023/06/05 08:08:50;;;;;;;1.20;1.10;;;;;;;21.57;47.61;102177.19;5062498;28;20037;-56
2023/06/05 08:11:15;;;;;;;1.27;1.17;;;;;;;21.58;47.69;102169.91;5062733;28;20155;-56
2023/06/05 08:13:40;;;;;;;1.58;1.48;;;;;;;21.58;47.65;102176.19;5063311;28;20450;-54
2023/06/05 08:16:06;;;;;;;1.00;1.00;;;;;;;21.58;48.09;102165.34;5064007;28;20044;-54
2023/06/05 08:18:32;;;;;;;1.38;1.27;;;;;;;21.58;47.66;102164.50;5062697;28;20037;-54
2023/06/05 08:20:57;;;;;;;0.88;0.88;;;;;;;21.58;48.00;102154.50;5063216;28;20125;-54
2023/06/05 08:23:23;;;;;;;2.13;1.20;;;;;;;21.58;47.60;102156.38;5069160;28;20379;-54
2023/06/05 08:25:48;;;;;;;1.38;1.27;;;;;;;21.58;48.04;102159.06;5067241;28;20146;-54
2023/06/05 08:28:15;;;;;;;2.10;1.10;;;;;;;21.58;47.72;102159.91;5062614;28;20148;-54
2023/06/05 08:30:41;;;;;;;1.55;1.30;;;;;;;21.59;47.90;102160.78;5061811;28;20384;-54
2023/06/05 08:33:06;;;;;;;1.60;1.50;;;;;;;21.59;47.95;102152.63;5063129;28;20078;-54
2023/06/05 08:35:32;;;;;;;1.35;1.25;;;;;;;21.59;47.54;102156.22;5063484;28;20024;-54
2023/06/05 08:37:58;;;;;;;1.00;1.00;;;;;;;21.58;47.44;102153.66;5064718;28;20542;-54
2023/06/05 08:40:28;;;;;;;1.25;1.15;;;;;;;21.59;47.93;102152.63;5062892;28;20094;-54
2023/06/05 08:42:53;;;;;;;0.98;0.98;;;;;;;21.60;47.77;102157.06;5063263;28;20348;-54
2023/06/05 08:45:19;;;;;;;0.82;0.82;;;;;;;21.59;47.98;102144.50;5061926;28;20052;-54
2023/06/05 08:47:50;;;;;;;1.20;1.20;;;;;;;21.59;48.10;102147.22;5063583;28;20037;-55
2023/06/05 08:50:16;;;;;;;1.33;1.13;;;;;;;21.59;47.38;102137.25;5062357;28;20029;-54
2023/06/05 08:52:45;;;;;;;1.00;1.00;;;;;;;21.60;47.74;102140.81;5062721;28;20073;-54
2023/06/05 08:55:11;;;;;;;1.05;0.98;;;;;;;21.60;47.72;102143.53;5056481;28;20021;-54
2023/06/05 08:57:41;;;;;;;1.30;0.90;;;;;;;21.58;47.96;102149.09;5052626;28;20052;-54
2023/06/05 09:00:10;;;;;;;1.13;1.02;;;;;;;21.59;47.77;102148.09;5060118;28;20033;-54
2023/06/05 09:02:43;;;;;;;1.02;1.00;;;;;;;21.59;48.08;102144.50;5049106;28;20390;-54
2023/06/05 09:05:08;;;;;;;1.25;1.10;;;;;;;21.60;48.04;102151.66;5048007;28;20094;-54
2023/06/05 09:07:34;;;;;;;1.20;1.10;;;;;;;21.60;48.05;102144.38;5048027;28;20054;-54
2023/06/05 09:09:59;;;;;;;1.45;1.35;;;;;;;21.60;47.98;102135.41;5049288;28;20140;-54
2023/06/05 09:12:25;;;;;;;1.52;1.40;;;;;;;21.60;47.93;102138.09;5048966;28;20028;-54
2023/06/05 09:14:51;;;;;;;1.15;1.05;;;;;;;21.60;48.03;102138.97;5047746;28;20119;-54
2023/06/05 09:17:17;;;;;;;1.30;1.20;;;;;;;21.61;47.78;102131.66;5049042;28;20025;-54
2023/06/05 09:19:43;;;;;;;1.23;1.13;;;;;;;21.60;47.80;102141.66;5050240;28;20060;-54
2023/06/05 09:22:10;;;;;;;1.30;1.13;;;;;;;21.60;47.98;102138.97;5053730;28;20020;-54
2023/06/05 09:24:36;;;;;;;1.23;1.17;;;;;;;21.60;47.84;102136.25;5048492;28;20474;-54
2023/06/05 09:27:10;;;;;;;1.63;1.25;;;;;;;21.60;48.16;102138.97;5050773;28;20039;-54
2023/06/05 09:29:39;;;;;;;1.13;1.10;;;;;;;21.61;47.69;102131.66;5048841;28;20024;-54
2023/06/05 09:32:15;;;;;;;1.83;1.33;;;;;;;21.62;48.06;102136.13;5046503;28;20036;-54
2023/06/05 09:34:41;;;;;;;1.20;1.10;;;;;;;21.62;47.59;102125.28;5048267;28;20091;-54
2023/06/05 09:37:09;;;;;;;1.67;1.30;;;;;;;21.60;47.80;102128.13;5048685;28;20025;-54
2023/06/05 09:39:36;;;;;;;1.00;1.00;;;;;;;21.61;47.57;102128.97;5049025;28;20353;-54
2023/06/05 09:42:02;;;;;;;1.17;1.10;;;;;;;21.62;47.79;102127.97;5049351;28;20051;-54
2023/06/05 09:44:29;;;;;;;2.03;1.20;;;;;;;21.63;47.91;102127.00;5048622;28;20037;-53
2023/06/05 09:47:07;;;;;;;0.70;0.70;;;;;;;21.63;47.79;102127.00;5048091;28;20052;-54
2023/06/05 09:49:41;;;;;;;1.30;1.00;;;;;;;21.64;47.84;102123.28;5048846;28;20063;-54
2023/06/05 09:52:11;;;;;;;0.95;0.95;;;;;;;21.63;47.65;102127.84;5047447;28;20025;-54
2023/06/05 09:54:39;;;;;;;1.13;1.05;;;;;;;21.64;47.78;102116.00;5048030;28;20401;-54
2023/06/05 09:57:06;;;;;;;1.58;1.17;;;;;;;21.63;47.74;102125.13;5052903;28;20116;-54
2023/06/05 09:59:34;;;;;;;1.25;1.17;;;;;;;21.63;48.04;102116.16;5042688;28;20462;-54
2023/06/05 10:02:02;;;;;;;1.33;1.23;;;;;;;21.63;47.70;102118.88;5048719;28;20025;-54
2023/06/05 10:04:29;;;;;;;1.30;1.20;;;;;;;21.64;47.90;102118.69;5049164;28;20094;-54
2023/06/05 10:07:00;;;;;;;1.35;1.25;;;;;;;21.65;48.16;102122.28;5048517;28;20047;-54
2023/06/05 10:09:25;;;;;;;1.40;1.30;;;;;;;21.66;47.75;102115.84;5046913;28;20466;-54
2023/06/05 10:11:51;;;;;;;1.20;1.20;;;;;;;21.66;47.99;102113.16;5047815;28;20036;-54
2023/06/05 10:14:18;;;;;;;1.45;1.30;;;;;;;21.65;48.13;102112.31;5044108;28;20463;-54
2023/06/05 10:16:48;;;;;;;0.93;0.90;;;;;;;21.66;48.14;102115.84;5046020;28;20029;-54
2023/06/05 10:19:15;;;;;;;1.45;0.88;;;;;;;21.66;48.14;102102.31;5053051;28;20422;-54
2023/06/05 10:21:41;;;;;;;1.23;1.13;;;;;;;21.66;48.28;102108.56;5046958;28;20115;-54
2023/06/05 10:24:12;;;;;;;1.02;0.85;;;;;;;21.67;47.86;102101.31;5047722;28;20107;-54
2023/06/05 10:26:56;;;;;;;1.80;1.17;;;;;;;21.68;48.16;102113.88;5048836;28;20037;-54
2023/06/05 10:29:33;;;;;;;1.30;1.20;;;;;;;21.69;47.85;102107.47;5047048;28;20040;-54
2023/06/05 10:32:06;;;;;;;1.20;1.08;;;;;;;21.68;47.95;102105.72;5047962;28;20040;-54
2023/06/05 10:35:06;;;;;;;2.05;1.45;;;;;;;21.72;48.28;102112.59;5047868;28;20368;-54
2023/06/05 10:38:04;;;;;;;1.23;1.13;;;;;;;21.73;47.97;102103.47;5042155;28;20104;-54
2023/06/05 10:40:30;;;;;;;1.10;1.10;;;;;;;21.71;48.21;102105.47;5049579;28;20386;-54
2023/06/05 10:43:31;;;;;;;1.00;1.00;;;;;;;21.75;48.30;102111.47;5048094;28;20028;-54
2023/06/05 10:46:02;;;;;;;1.00;1.00;;;;;;;21.71;48.14;102110.88;5045443;28;20049;-54
2023/06/05 10:49:07;;;;;;;1.02;1.02;;;;;;;21.76;48.37;102105.03;5047115;28;20033;-54
2023/06/05 10:51:37;;;;;;;1.20;1.10;;;;;;;21.73;48.25;102097.19;5049031;28;20025;-54
2023/06/05 10:54:05;;;;;;;1.33;1.23;;;;;;;21.72;48.01;102101.72;5052010;28;20041;-54
2023/06/05 10:56:59;;;;;;;1.17;1.02;;;;;;;21.78;48.26;102103.03;5047205;28;20033;-54
2023/06/05 10:59:35;;;;;;;1.40;1.23;;;;;;;21.74;47.91;102091.63;5047132;28;20037;-54
2023/06/05 11:02:04;;;;;;;1.10;1.10;;;;;;;21.74;47.96;102094.34;5046734;28;20033;-54
2023/06/05 11:04:52;;;;;;;1.30;1.10;;;;;;;21.78;48.41;102087.66;5046486;28;20025;-54
2023/06/05 11:07:24;;;;;;;1.05;1.05;;;;;;;21.77;48.01;102088.63;5045814;28;20033;-54
2023/06/05 11:10:01;;;;;;;1.55;1.05;;;;;;;21.77;48.13;102082.34;5047034;28;20077;-54
2023/06/05 11:12:47;;;;;;;1.15;1.15;;;;;;;21.77;48.51;102082.34;5044603;28;20025;-54
2023/06/05 11:15:34;;;;;;;0.82;0.82;;;;;;;21.78;48.58;102082.22;5050368;28;20446;-54
2023/06/05 11:18:31;;;;;;;1.45;1.33;;;;;;;21.82;48.27;102074.66;5046158;28;20060;-54
2023/06/05 11:20:57;;;;;;;1.27;1.17;;;;;;;21.80;48.61;102073.91;5047181;28;20485;-54
2023/06/05 11:23:27;;;;;;;1.10;1.10;;;;;;;21.79;48.61;102073.06;5054609;28;20033;-54
2023/06/05 11:25:56;;;;;;;0.80;0.80;;;;;;;21.80;48.14;102074.81;5049234;28;20482;-54
2023/06/05 11:28:42;;;;;;;1.40;1.30;;;;;;;21.83;48.50;102068.22;5046914;28;20037;-54